Time;durP1;ratioP1;P1;durP2;ratioP2;P2;SDS_P1;SDS_P2;PMS_P1;PMS_P2;Temp;Humidity;BMP_temperature;BMP_pressure;BME280_temperature;BME280_humidity;BME280_pressure;Samples;Min_cycle;Max_cycle;Signal;HPM_P1;HPM_P2
2023/01/24 00:00:27;;;;;;;33.25;17.73;;;3.00;99.90;;;1.93;100.00;102990.84;4151869;28;20033;-74
2023/01/24 00:02:28;;;;;;;33.80;18.20;;;3.00;99.90;;;1.88;100.00;102992.75;4152683;28;20045;-74
2023/01/24 00:04:29;;;;;;;28.70;16.35;;;3.00;99.90;;;1.89;100.00;102989.22;4135426;28;20089;-74
2023/01/24 00:06:30;;;;;;;36.15;18.95;;;3.00;99.90;;;1.91;100.00;102987.44;4147119;28;20054;-74
2023/01/24 00:08:31;;;;;;;32.45;17.95;;;3.10;99.90;;;1.91;100.00;102990.06;4158893;28;20481;-74
2023/01/24 00:10:32;;;;;;;34.00;18.10;;;3.10;99.90;;;1.95;100.00;102992.50;4151659;28;20104;-74
2023/01/24 00:12:33;;;;;;;36.35;18.58;;;3.10;99.90;;;1.88;100.00;102983.16;4151925;28;20060;-74
2023/01/24 00:14:34;;;;;;;35.00;18.35;;;3.10;99.90;;;1.93;100.00;102994.31;4153090;28;20084;-74
2023/01/24 00:16:35;;;;;;;34.67;18.30;;;3.10;99.90;;;1.97;100.00;102988.09;4154529;28;20105;-74
2023/01/24 00:18:36;;;;;;;38.15;19.10;;;3.10;99.90;;;1.93;100.00;102991.72;4155872;28;20037;-74
2023/01/24 00:20:37;;;;;;;38.53;19.95;;;3.10;99.90;;;1.89;100.00;102987.47;4151735;28;20030;-74
2023/01/24 00:22:38;;;;;;;37.47;18.40;;;3.10;99.90;;;1.84;100.00;102989.38;4151330;28;20456;-74
2023/01/24 00:24:39;;;;;;;39.50;18.55;;;3.10;99.90;;;1.91;100.00;103001.28;4152581;28;20057;-74
2023/01/24 00:26:40;;;;;;;37.47;20.30;;;3.10;99.90;;;1.86;100.00;103005.78;4154229;28;20470;-74
2023/01/24 00:28:41;;;;;;;34.47;18.83;;;3.00;99.90;;;1.85;100.00;102992.84;4151919;28;20044;-74
2023/01/24 00:30:42;;;;;;;35.13;18.98;;;3.00;99.90;;;1.92;100.00;103004.75;4151755;28;20163;-74
2023/01/24 00:32:42;;;;;;;36.58;18.73;;;3.00;99.90;;;1.97;100.00;103010.69;4152837;28;20101;-74
2023/01/24 00:34:43;;;;;;;37.53;18.40;;;3.00;99.90;;;1.84;100.00;102991.97;4152710;28;20041;-74
2023/01/24 00:36:44;;;;;;;33.90;18.25;;;3.00;99.90;;;1.90;100.00;103002.22;4151560;28;20043;-74
2023/01/24 00:38:45;;;;;;;36.85;18.23;;;3.00;99.90;;;1.85;100.00;103003.25;4152674;28;20028;-74
2023/01/24 00:40:46;;;;;;;35.95;19.63;;;3.10;99.90;;;1.86;100.00;103010.13;4150767;28;20037;-74
2023/01/24 00:42:47;;;;;;;38.45;19.52;;;3.10;99.90;;;1.89;100.00;103010.03;4151345;28;20131;-74
2023/01/24 00:44:48;;;;;;;38.58;20.30;;;3.00;99.90;;;1.86;100.00;103000.59;4151218;28;20021;-74
2023/01/24 00:46:52;;;;;;;42.25;20.30;;;3.00;99.90;;;1.87;100.00;103012.72;4154334;28;20033;-74
2023/01/24 00:48:53;;;;;;;38.47;20.27;;;3.00;99.90;;;1.79;100.00;103008.63;4158797;28;20025;-74
2023/01/24 00:50:53;;;;;;;35.35;19.25;;;3.00;99.90;;;1.81;100.00;103001.63;4151256;28;20113;-74
2023/01/24 00:52:54;;;;;;;38.33;20.13;;;3.00;99.90;;;1.83;100.00;103018.03;4151185;28;20057;-74
2023/01/24 00:54:55;;;;;;;40.88;20.58;;;3.00;99.90;;;1.83;100.00;103005.00;4151294;28;20040;-74
2023/01/24 00:56:56;;;;;;;37.75;18.52;;;3.00;99.90;;;1.85;100.00;103014.47;4153258;28;20041;-74
2023/01/24 00:58:57;;;;;;;38.47;19.42;;;3.00;99.90;;;1.79;100.00;103008.63;4152356;28;20045;-74
2023/01/24 01:01:00;;;;;;;37.90;20.00;;;3.00;99.90;;;1.84;100.00;103009.34;4151990;28;20029;-74
2023/01/24 01:03:01;;;;;;;38.88;19.38;;;3.00;99.90;;;1.81;100.00;103010.28;4152294;28;20038;-74
2023/01/24 01:05:01;;;;;;;39.65;19.70;;;3.00;99.90;;;1.84;100.00;103001.53;4151270;28;20058;-74
2023/01/24 01:07:02;;;;;;;40.22;19.52;;;3.00;99.90;;;1.81;100.00;103012.03;4160754;28;20025;-74
2023/01/24 01:09:03;;;;;;;39.75;19.95;;;3.00;99.90;;;1.80;100.00;103005.09;4152345;28;20490;-74
2023/01/24 01:11:05;;;;;;;41.00;22.10;;;3.00;99.90;;;1.92;100.00;103012.56;4153566;28;20489;-74
2023/01/24 01:13:07;;;;;;;36.95;20.35;;;3.00;99.90;;;1.86;100.00;102999.72;4151224;28;20033;-74
2023/01/24 01:15:08;;;;;;;37.97;19.65;;;3.00;99.90;;;1.83;100.00;103015.44;4151416;28;20042;-74
2023/01/24 01:17:09;;;;;;;38.10;19.23;;;3.00;99.90;;;1.84;100.00;102999.78;4161828;28;20034;-74
2023/01/24 01:19:10;;;;;;;37.92;19.63;;;3.00;99.90;;;1.82;100.00;103006.78;4151189;28;20511;-74
2023/01/24 01:21:15;;;;;;;38.45;20.27;;;3.00;99.90;;;1.88;100.00;103005.75;4152270;28;20037;-74
2023/01/24 01:23:16;;;;;;;39.03;19.67;;;3.00;99.90;;;1.82;100.00;103009.41;4151072;28;20034;-74
2023/01/24 01:25:17;;;;;;;35.15;19.40;;;3.00;99.90;;;1.81;100.00;103007.69;4151749;28;20088;-74
2023/01/24 01:27:17;;;;;;;37.90;19.27;;;3.00;99.90;;;1.84;100.00;103010.19;4158972;28;20041;-74
2023/01/24 01:29:18;;;;;;;38.10;20.15;;;3.00;99.90;;;1.85;100.00;103005.84;4152312;28;20490;-74
2023/01/24 01:31:19;;;;;;;40.05;20.40;;;3.00;99.90;;;1.79;100.00;103003.41;4150609;28;20096;-74
2023/01/24 01:33:21;;;;;;;36.30;18.48;;;3.00;99.90;;;1.78;100.00;103006.91;4150792;28;20072;-74
2023/01/24 01:35:21;;;;;;;34.72;19.45;;;3.00;99.90;;;1.84;100.00;103015.41;4152153;28;20511;-74
2023/01/24 01:37:23;;;;;;;38.83;19.63;;;3.00;99.90;;;1.81;100.00;103022.44;4156545;28;20030;-74
2023/01/24 01:39:24;;;;;;;43.10;21.02;;;3.00;99.90;;;1.81;100.00;103017.22;4150980;28;20042;-74
2023/01/24 01:41:24;;;;;;;36.03;19.15;;;3.00;99.90;;;1.80;100.00;103021.56;4151926;28;20100;-74
2023/01/24 01:43:29;;;;;;;41.35;19.73;;;3.00;99.90;;;1.80;100.00;103024.19;4150836;28;20030;-74
2023/01/24 01:45:37;;;;;;;42.15;21.02;;;2.90;99.90;;;1.82;100.00;103022.41;4150782;28;20048;-74
2023/01/24 01:47:38;;;;;;;42.97;20.85;;;3.00;99.90;;;1.82;100.00;103027.59;4136516;28;20153;-74
2023/01/24 01:49:43;;;;;;;35.72;19.10;;;2.90;99.90;;;1.76;100.00;103025.19;4151842;28;20516;-74
2023/01/24 01:51:49;;;;;;;42.03;20.58;;;2.90;99.90;;;1.82;100.00;103018.94;4151987;28;20073;-74
2023/01/24 01:54:04;;;;;;;40.85;21.13;;;2.90;99.90;;;1.73;100.00;103004.47;4154004;28;20072;-74
2023/01/24 01:56:28;;;;;;;41.88;20.63;;;2.90;99.90;;;1.74;100.00;103006.13;4154862;28;20072;-74
2023/01/24 01:58:30;;;;;;;42.10;19.33;;;3.00;99.90;;;1.84;100.00;103009.34;4153952;28;20037;-74
2023/01/24 02:00:31;;;;;;;42.72;21.35;;;3.00;99.90;;;1.76;100.00;103006.13;4153786;28;20093;-74
2023/01/24 02:02:32;;;;;;;39.85;20.35;;;3.00;99.90;;;1.85;100.00;103018.84;4153203;28;20437;-74
2023/01/24 02:04:37;;;;;;;40.20;20.48;;;3.00;99.90;;;1.72;100.00;103020.09;4153828;28;20026;-74
2023/01/24 02:06:59;;;;;;;37.80;19.50;;;2.90;99.90;;;1.75;100.00;103020.88;4159608;28;20025;-74
2023/01/24 02:09:03;;;;;;;39.63;18.67;;;2.90;99.90;;;1.73;100.00;103025.28;4155619;28;20037;-74
2023/01/24 02:13:25;;;;;;;40.00;20.00;;;2.90;99.90;;;1.74;100.00;103015.69;4153949;28;20053;-74
2023/01/24 02:16:26;;;;;;;36.67;19.20;;;2.90;99.90;;;1.85;100.00;103019.69;4153474;28;20026;-74
2023/01/24 02:17:56;;;;;;;42.47;21.02;;;2.90;99.90;;;1.89;100.00;103020.44;4132392;28;20057;-74
2023/01/24 02:20:36;;;;;;;40.03;20.08;;;2.90;99.90;;;1.82;100.00;103027.59;4154639;28;20018;-74
2023/01/24 02:23:07;;;;;;;41.53;19.92;;;3.00;99.90;;;1.83;100.00;103031.91;4149717;28;20105;-74
2023/01/24 02:25:12;;;;;;;35.97;18.70;;;3.00;99.90;;;1.78;100.00;103031.19;4149135;28;20112;-74
2023/01/24 02:27:13;;;;;;;39.90;19.65;;;3.00;99.90;;;1.74;100.00;103021.75;4161040;28;20087;-74
2023/01/24 02:29:16;;;;;;;38.47;19.05;;;2.90;99.90;;;1.77;100.00;103032.06;4153578;28;20030;-74
2023/01/24 02:31:17;;;;;;;43.03;21.65;;;2.90;99.90;;;1.76;100.00;103025.19;4153229;28;20414;-74
2023/01/24 02:33:20;;;;;;;39.33;18.80;;;2.90;99.90;;;1.73;100.00;103020.06;4153189;28;20022;-74
2023/01/24 02:35:31;;;;;;;40.03;20.45;;;2.90;99.90;;;1.74;100.00;103021.75;4153447;28;20121;-74
2023/01/24 02:37:36;;;;;;;39.63;18.60;;;2.90;99.90;;;1.75;100.00;103018.25;4157219;28;20106;-74
2023/01/24 02:39:50;;;;;;;38.97;18.27;;;2.90;99.90;;;1.78;100.00;103023.38;4153204;28;20040;-74
2023/01/24 02:42:11;;;;;;;35.53;18.70;;;2.80;99.90;;;1.73;100.00;103017.47;4154653;28;20032;-74
2023/01/24 02:44:26;;;;;;;36.05;19.55;;;2.90;99.90;;;1.75;100.00;103018.25;4153212;28;20587;-74
2023/01/24 02:46:30;;;;;;;41.58;20.63;;;2.90;99.90;;;1.73;100.00;103022.66;4154591;28;20447;-74
2023/01/24 02:48:31;;;;;;;35.38;17.42;;;2.90;99.90;;;1.75;100.00;103020.00;4154319;28;20029;-74
2023/01/24 02:55:11;;;;;;;38.40;18.20;;;2.90;99.90;;;1.71;100.00;103016.63;4153161;28;20053;-74
2023/01/24 02:59:31;;;;;;;38.42;19.30;;;2.90;99.90;;;1.71;100.00;103010.56;4153911;28;20029;-74
2023/01/24 03:01:32;;;;;;;37.25;19.85;;;2.90;99.90;;;1.71;100.00;103008.81;4152822;28;20513;-75
2023/01/24 03:03:33;;;;;;;35.45;18.23;;;2.90;99.90;;;1.70;100.00;103004.53;4151948;28;20401;-74
2023/01/24 03:05:56;;;;;;;40.95;19.60;;;2.90;99.90;;;1.74;100.00;103015.69;4157514;28;20029;-74
2023/01/24 03:07:56;;;;;;;34.42;19.58;;;2.80;99.90;;;1.65;100.00;103002.06;4162305;28;20030;-74
2023/01/24 03:09:57;;;;;;;37.47;19.13;;;2.90;99.90;;;1.66;100.00;102997.72;4153871;28;20088;-74
2023/01/24 03:35:22;;;;;;;41.70;21.15;;;2.80;99.90;;;1.58;100.00;103012.69;4152466;28;20500;-74
2023/01/24 03:39:59;;;;;;;36.63;18.80;;;2.70;99.90;;;1.57;100.00;102996.22;4152625;28;20049;-74
2023/01/24 03:42:00;;;;;;;36.45;18.27;;;2.70;99.90;;;1.49;100.00;103002.53;4153560;28;20080;-74
2023/01/24 03:44:01;;;;;;;35.13;18.00;;;2.70;99.90;;;1.40;100.00;102995.00;4151940;28;20455;-75
2023/01/24 03:46:02;;;;;;;31.83;16.90;;;2.60;99.90;;;1.36;100.00;102985.56;4152043;28;20022;-74
2023/01/24 03:48:26;;;;;;;38.88;18.73;;;2.60;99.90;;;1.41;100.00;102996.69;4152419;28;20073;-74
2023/01/24 03:52:52;;;;;;;33.75;17.42;;;2.60;99.90;;;1.40;100.00;103010.59;4153331;28;20091;-74
2023/01/24 03:54:55;;;;;;;31.73;17.75;;;2.60;99.90;;;1.39;100.00;102998.47;4152083;28;20481;-74
2023/01/24 03:56:56;;;;;;;30.75;16.55;;;2.60;99.90;;;1.33;100.00;103003.84;4158721;28;20120;-74
2023/01/24 03:58:57;;;;;;;36.63;18.95;;;2.60;99.90;;;1.28;100.00;103000.53;4156547;28;20026;-75
2023/01/24 04:00:58;;;;;;;31.48;17.50;;;2.50;99.90;;;1.25;100.00;103008.41;4151484;28;20045;-74
2023/01/24 04:03:00;;;;;;;29.25;15.80;;;2.50;99.90;;;1.20;100.00;102999.88;4135393;28;20591;-74
2023/01/24 04:05:13;;;;;;;30.13;15.65;;;2.50;99.90;;;1.21;100.00;102998.97;4152059;28;20053;-75
2023/01/24 04:07:14;;;;;;;25.10;15.15;;;2.50;99.90;;;1.24;100.00;102994.56;4161928;28;20464;-74
2023/01/24 04:09:15;;;;;;;27.38;16.02;;;2.40;99.90;;;1.18;100.00;102991.25;4139935;28;20026;-75
2023/01/24 04:11:16;;;;;;;28.88;16.67;;;2.40;99.90;;;1.23;100.00;102991.97;4151998;28;20394;-75
2023/01/24 04:13:17;;;;;;;28.92;15.10;;;2.40;99.90;;;1.14;100.00;102993.09;4151787;28;20026;-74
2023/01/24 04:15:25;;;;;;;27.35;16.33;;;2.40;99.90;;;1.18;100.00;102997.31;4150623;28;20492;-74
2023/01/24 04:17:26;;;;;;;25.58;14.50;;;2.40;99.90;;;1.08;100.00;102996.72;4142418;28;20023;-74
2023/01/24 04:19:27;;;;;;;25.90;14.70;;;2.30;99.90;;;1.07;100.00;103000.22;4153005;28;20030;-74
2023/01/24 04:21:28;;;;;;;30.05;16.02;;;2.30;99.90;;;1.07;100.00;103008.00;4151542;28;20574;-74
2023/01/24 04:23:29;;;;;;;26.60;15.30;;;2.30;99.90;;;1.07;100.00;103010.63;4153022;28;20025;-74
2023/01/24 04:25:30;;;;;;;27.52;14.73;;;2.30;99.90;;;1.15;100.00;102994.81;4152295;28;20037;-74
2023/01/24 04:27:31;;;;;;;25.83;15.65;;;2.30;99.90;;;1.09;100.00;103007.97;4155921;28;20022;-74
2023/01/24 04:29:32;;;;;;;25.52;14.35;;;2.30;99.90;;;1.02;100.00;102988.22;4151578;28;20545;-74
2023/01/24 04:31:33;;;;;;;27.05;15.32;;;2.20;99.90;;;1.01;100.00;103009.91;4151304;28;20036;-74
2023/01/24 04:33:34;;;;;;;29.88;16.60;;;2.20;99.90;;;1.01;100.00;103017.72;4151542;28;20026;-74
2023/01/24 04:35:35;;;;;;;24.98;14.98;;;2.20;99.90;;;1.02;100.00;103015.06;4151546;28;20043;-74
2023/01/24 04:37:36;;;;;;;28.25;14.93;;;2.20;99.90;;;0.99;100.00;102999.53;4154880;28;20037;-74
2023/01/24 04:39:36;;;;;;;27.15;16.08;;;2.20;99.90;;;1.00;100.00;103006.47;4151368;28;20037;-74
2023/01/24 04:41:37;;;;;;;28.98;16.50;;;2.20;99.90;;;1.02;100.00;103014.19;4152507;28;20037;-74
2023/01/24 04:43:38;;;;;;;29.52;15.32;;;2.20;99.90;;;1.00;100.00;103001.25;4152508;28;20493;-74
2023/01/24 04:45:39;;;;;;;31.35;15.95;;;2.20;99.90;;;1.00;100.00;103001.25;4134815;28;20030;-74
2023/01/24 04:47:40;;;;;;;28.23;16.70;;;2.20;99.90;;;1.05;100.00;103004.59;4152631;28;20034;-74
2023/01/24 04:49:41;;;;;;;29.65;16.45;;;2.20;99.90;;;0.99;100.00;102998.69;4151158;28;20026;-74
2023/01/24 04:51:42;;;;;;;29.90;15.98;;;2.20;99.90;;;0.97;100.00;103001.34;4151315;28;20018;-74
2023/01/24 04:53:43;;;;;;;28.80;15.75;;;2.20;99.90;;;1.00;100.00;103006.47;4151283;28;20026;-74
2023/01/24 04:55:44;;;;;;;30.55;15.57;;;2.20;99.90;;;0.92;100.00;103002.34;4152432;28;20045;-74
2023/01/24 04:57:45;;;;;;;28.27;16.73;;;2.20;99.90;;;0.95;100.00;103003.13;4161927;28;20060;-74
2023/01/24 04:59:46;;;;;;;32.80;17.08;;;2.20;99.90;;;1.04;100.00;103008.09;4134801;28;20045;-74
2023/01/24 05:01:47;;;;;;;29.25;15.75;;;2.20;99.90;;;1.02;100.00;103003.81;4153123;28;20022;-74
2023/01/24 05:03:48;;;;;;;27.92;16.33;;;2.20;99.90;;;1.02;100.00;103004.66;4151111;28;20058;-74
2023/01/24 05:05:50;;;;;;;30.65;16.73;;;2.20;99.90;;;1.02;100.00;103004.66;4151098;28;20026;-74
2023/01/24 05:07:51;;;;;;;28.23;16.38;;;2.20;99.90;;;1.05;100.00;103003.72;4159090;28;20502;-74
2023/01/24 05:09:52;;;;;;;30.02;16.92;;;2.20;99.90;;;1.01;100.00;102995.19;4152373;28;20025;-75
2023/01/24 05:11:53;;;;;;;30.33;17.95;;;2.20;99.90;;;1.06;100.00;103011.50;4151082;28;20081;-74
2023/01/24 05:13:54;;;;;;;28.10;16.35;;;2.20;99.90;;;1.07;100.00;103005.41;4152217;28;20033;-74
2023/01/24 05:15:54;;;;;;;28.67;15.93;;;2.20;99.90;;;1.06;100.00;103011.50;4152070;28;20064;-74
2023/01/24 05:17:55;;;;;;;30.58;16.58;;;2.20;99.90;;;1.08;100.00;103016.63;4157716;28;20026;-74
2023/01/24 05:19:56;;;;;;;29.17;18.08;;;2.20;99.90;;;1.05;100.00;103017.56;4150947;28;20081;-74
2023/01/24 05:21:57;;;;;;;33.15;17.27;;;2.20;99.90;;;1.05;100.00;103014.97;4152054;28;20057;-74
2023/01/24 05:23:58;;;;;;;31.70;17.33;;;2.30;99.90;;;1.00;100.00;103011.66;4153107;28;20066;-74
2023/01/24 05:26:02;;;;;;;28.00;16.80;;;2.20;99.90;;;1.08;100.00;103019.25;4151188;28;20042;-74
2023/01/24 05:28:03;;;;;;;32.33;17.92;;;2.20;99.90;;;1.02;100.00;103024.59;4141503;28;20018;-74
2023/01/24 05:30:05;;;;;;;28.25;17.63;;;2.30;99.90;;;1.02;100.00;103025.44;4154229;28;20081;-74
2023/01/24 05:32:06;;;;;;;32.95;17.70;;;2.30;99.90;;;1.06;100.00;103024.50;4154130;28;20025;-74
2023/01/24 05:34:07;;;;;;;31.83;18.10;;;2.20;99.90;;;1.04;100.00;103023.69;4154250;28;20033;-74
2023/01/24 05:36:13;;;;;;;32.58;17.45;;;2.20;99.90;;;1.06;100.00;103016.69;4154294;28;20433;-74
2023/01/24 05:38:14;;;;;;;31.13;18.33;;;2.30;99.90;;;1.03;100.00;103010.72;4155238;28;20409;-74
2023/01/24 05:40:16;;;;;;;32.67;18.23;;;2.30;99.90;;;1.04;100.00;103021.09;4137619;28;20022;-74
2023/01/24 05:42:17;;;;;;;30.48;18.48;;;2.20;99.90;;;1.03;100.00;103021.97;4153861;28;20516;-74
2023/01/24 05:44:18;;;;;;;29.92;16.83;;;2.20;99.90;;;1.03;100.00;103016.78;4153826;28;20026;-74
2023/01/24 05:46:21;;;;;;;31.73;17.75;;;2.20;99.90;;;1.01;100.00;103018.56;4154851;28;20041;-74
2023/01/24 05:48:22;;;;;;;30.52;17.70;;;2.20;99.90;;;1.00;100.00;103024.66;4142242;28;20136;-74
2023/01/24 05:50:23;;;;;;;31.58;17.73;;;2.20;99.90;;;1.05;100.00;103017.56;4153783;28;20022;-74
2023/01/24 05:52:24;;;;;;;30.50;17.88;;;2.20;99.90;;;1.02;100.00;103014.19;4155223;28;20033;-74
2023/01/24 05:54:24;;;;;;;33.35;17.80;;;2.20;99.90;;;1.05;100.00;103021.91;4155130;28;20064;-74
2023/01/24 05:56:27;;;;;;;34.15;18.92;;;2.20;99.90;;;1.04;100.00;103017.63;4138104;28;20019;-74
2023/01/24 05:58:32;;;;;;;35.00;17.90;;;2.20;99.90;;;0.99;100.00;103015.13;4163519;28;20049;-74
2023/01/24 06:00:33;;;;;;;32.45;17.52;;;2.20;99.90;;;1.00;100.00;103016.84;4137399;28;20514;-74
2023/01/24 06:02:34;;;;;;;33.95;18.55;;;2.20;99.90;;;1.01;100.00;103017.72;4153849;28;20030;-74
2023/01/24 06:04:35;;;;;;;34.40;19.73;;;2.20;99.90;;;0.99;100.00;103003.88;4153809;28;20026;-74
2023/01/24 06:06:35;;;;;;;30.50;18.38;;;2.20;99.90;;;0.95;100.00;103010.94;4155597;28;20034;-74
2023/01/24 06:08:37;;;;;;;33.25;19.40;;;2.20;99.90;;;0.94;100.00;103009.22;4159940;28;20030;-74
2023/01/24 06:10:38;;;;;;;32.63;18.48;;;2.20;99.90;;;0.98;100.00;103010.00;4153514;28;20190;-74
2023/01/24 06:12:39;;;;;;;33.55;17.75;;;2.20;99.90;;;1.01;100.00;103007.31;4154809;28;20037;-74
2023/01/24 06:14:40;;;;;;;30.35;18.45;;;2.20;99.90;;;1.00;100.00;103019.44;4153615;28;20108;-74
2023/01/24 06:16:44;;;;;;;31.05;17.88;;;2.20;99.90;;;0.92;100.00;103000.63;4155889;28;20425;-74
2023/01/24 06:18:46;;;;;;;36.47;18.75;;;2.20;99.90;;;0.93;100.00;103004.03;4154693;28;20506;-74
2023/01/24 06:20:47;;;;;;;34.10;18.58;;;2.20;99.90;;;0.98;100.00;103003.06;4153304;28;20422;-75
2023/01/24 06:23:03;;;;;;;34.15;19.40;;;2.20;99.90;;;1.02;100.00;103009.84;4153492;28;20511;-75
2023/01/24 06:25:05;;;;;;;31.35;18.77;;;2.20;99.90;;;0.94;100.00;103011.81;4154354;28;20083;-74
2023/01/24 06:27:07;;;;;;;32.33;18.55;;;2.20;99.90;;;0.96;100.00;103011.75;4155755;28;20050;-74
2023/01/24 06:29:12;;;;;;;33.17;19.02;;;2.20;99.90;;;1.00;100.00;103013.41;4153462;28;20446;-74
2023/01/24 06:31:48;;;;;;;35.63;18.20;;;2.20;99.90;;;0.90;100.00;103014.50;4154379;28;20393;-74
2023/01/24 06:34:31;;;;;;;33.22;20.15;;;2.20;99.90;;;0.95;100.00;103013.53;4122699;28;20033;-74
2023/01/24 06:37:19;;;;;;;33.30;18.85;;;2.20;99.90;;;0.97;100.00;103016.06;4154200;28;20030;-74
2023/01/24 06:39:21;;;;;;;34.13;18.77;;;2.20;99.90;;;0.96;100.00;103015.22;4159275;28;20022;-74
2023/01/24 06:41:22;;;;;;;36.70;18.58;;;2.20;99.90;;;0.99;100.00;103017.72;4154243;28;20508;-74
2023/01/24 06:43:24;;;;;;;32.00;19.08;;;2.20;99.90;;;1.01;100.00;103018.56;4153094;28;20037;-74
2023/01/24 06:45:25;;;;;;;35.15;18.63;;;2.20;99.90;;;1.01;100.00;103012.50;4136482;28;20026;-74
2023/01/24 06:47:27;;;;;;;34.53;19.58;;;2.20;99.90;;;1.06;100.00;103019.28;4154058;28;20033;-74
2023/01/24 06:49:28;;;;;;;33.63;18.48;;;2.20;99.90;;;0.98;100.00;103026.44;4152986;28;20525;-74
2023/01/24 06:51:29;;;;;;;38.85;20.35;;;2.20;99.90;;;0.99;100.00;103020.34;4154320;28;20025;-74
2023/01/24 06:53:33;;;;;;;36.45;19.77;;;2.20;99.90;;;1.01;100.00;103028.09;4152522;28;20030;-74
2023/01/24 06:55:35;;;;;;;33.08;18.92;;;2.20;99.90;;;1.09;100.00;103021.81;4153187;28;20030;-74
2023/01/24 06:57:35;;;;;;;33.08;19.52;;;2.20;99.90;;;0.98;100.00;103031.63;4152728;28;20049;-74
2023/01/24 06:59:36;;;;;;;36.30;20.00;;;2.20;99.90;;;1.02;100.00;103022.84;4152867;28;20022;-74
2023/01/24 07:01:37;;;;;;;38.47;21.17;;;2.20;99.90;;;1.10;100.00;103033.94;4136245;28;20078;-74
2023/01/24 07:03:38;;;;;;;36.72;20.05;;;2.30;99.90;;;1.06;100.00;103026.22;4156409;28;20029;-74
2023/01/24 07:05:39;;;;;;;38.30;20.63;;;2.20;99.90;;;1.08;100.00;103027.03;4152541;28;20610;-74
2023/01/24 07:07:40;;;;;;;36.72;20.77;;;2.20;99.90;;;1.15;100.00;103039.00;4164334;28;20101;-74
2023/01/24 07:09:41;;;;;;;38.28;21.08;;;2.20;99.90;;;1.06;100.00;103034.88;4152588;28;20038;-74
2023/01/24 07:11:42;;;;;;;39.95;21.33;;;2.20;99.90;;;0.98;100.00;103035.97;4153981;28;20026;-74
2023/01/24 07:13:43;;;;;;;39.88;19.63;;;2.20;99.90;;;0.96;100.00;103046.41;4153773;28;20441;-74
2023/01/24 07:15:43;;;;;;;39.42;21.88;;;2.20;99.90;;;0.96;100.00;103046.41;4152412;28;20105;-74
2023/01/24 07:17:45;;;;;;;37.95;19.88;;;2.20;99.90;;;0.98;100.00;103044.63;4162343;28;20505;-74
2023/01/24 07:19:46;;;;;;;33.58;19.45;;;2.20;99.90;;;1.02;100.00;103050.56;4152628;28;20030;-74
2023/01/24 07:21:48;;;;;;;38.13;21.38;;;2.20;99.90;;;1.00;100.00;103052.38;4152369;28;20108;-74
2023/01/24 07:23:53;;;;;;;36.67;19.67;;;2.20;99.90;;;1.02;100.00;103035.84;4152457;28;20076;-74
2023/01/24 07:25:55;;;;;;;36.40;20.15;;;2.20;99.90;;;1.03;100.00;103053.16;4162003;28;20512;-74
2023/01/24 07:27:56;;;;;;;39.47;20.77;;;2.20;99.90;;;1.07;100.00;103051.34;4160197;28;20026;-74
2023/01/24 07:29:57;;;;;;;38.33;20.17;;;2.20;99.90;;;1.03;100.00;103047.97;4136110;28;20550;-74
2023/01/24 07:31:58;;;;;;;37.17;20.77;;;2.20;99.90;;;1.06;100.00;103053.06;4151912;28;20026;-74
2023/01/24 07:33:59;;;;;;;39.60;20.98;;;2.20;99.90;;;1.08;100.00;103056.47;4152405;28;20559;-74
2023/01/24 07:35:59;;;;;;;37.58;20.63;;;2.20;99.90;;;1.02;100.00;103041.03;4152196;28;20030;-74
2023/01/24 07:38:00;;;;;;;39.22;21.65;;;2.20;99.90;;;1.11;100.00;103053.81;4152186;28;20025;-74
2023/01/24 07:40:03;;;;;;;41.42;23.15;;;2.30;99.90;;;1.13;100.00;103056.38;4153468;28;20374;-74
2023/01/24 07:42:04;;;;;;;40.95;22.08;;;2.30;99.90;;;1.11;100.00;103061.59;4152244;28;20037;-74
2023/01/24 07:44:05;;;;;;;36.90;20.42;;;2.30;99.90;;;1.11;100.00;103053.81;4153412;28;20053;-74
2023/01/24 07:46:06;;;;;;;43.15;23.23;;;2.30;99.90;;;1.10;100.00;103065.13;4155251;28;20553;-74
2023/01/24 07:48:07;;;;;;;39.38;22.48;;;2.30;99.90;;;1.08;100.00;103064.28;4153847;28;20030;-74
2023/01/24 07:50:09;;;;;;;42.22;22.73;;;2.30;99.90;;;1.11;100.00;103066.81;4151440;28;20157;-74
2023/01/24 07:52:10;;;;;;;36.00;22.45;;;2.30;99.90;;;1.16;100.00;103073.63;4131340;28;20397;-74
2023/01/24 07:54:11;;;;;;;37.97;22.13;;;2.30;99.90;;;1.15;100.00;103075.38;4143696;28;20056;-74
2023/01/24 07:56:12;;;;;;;41.63;22.83;;;2.30;99.90;;;1.18;100.00;103075.31;4143226;28;20022;-74
2023/01/24 07:58:12;;;;;;;42.10;22.02;;;2.30;99.90;;;1.18;100.00;103077.91;4143206;28;20030;-74
2023/01/24 08:00:15;;;;;;;40.63;23.00;;;2.40;99.90;;;1.23;100.00;103081.22;4143471;28;20624;-74
2023/01/24 08:02:16;;;;;;;43.55;23.40;;;2.40;99.90;;;1.24;100.00;103082.09;4134097;28;20027;-74
2023/01/24 08:04:17;;;;;;;42.20;24.27;;;2.40;99.90;;;1.19;100.00;103083.97;4144984;28;20041;-74
2023/01/24 08:06:18;;;;;;;38.25;21.48;;;2.40;99.90;;;1.20;100.00;103086.50;4147361;28;20511;-74
2023/01/24 08:08:19;;;;;;;39.38;21.85;;;2.40;99.90;;;1.19;100.00;103090.03;4145667;28;20030;-74
2023/01/24 08:10:21;;;;;;;42.55;23.50;;;2.40;99.90;;;1.33;100.00;103089.66;4144942;28;20014;-74
2023/01/24 08:12:22;;;;;;;44.00;23.63;;;2.40;99.90;;;1.23;100.00;103099.44;4152566;28;20033;-74
2023/01/24 08:14:23;;;;;;;42.65;22.35;;;2.50;99.90;;;1.17;100.00;103094.38;4151811;28;20022;-74
2023/01/24 08:16:25;;;;;;;41.95;23.40;;;2.50;99.90;;;1.25;100.00;103095.06;4151403;28;20034;-74
2023/01/24 08:18:26;;;;;;;42.47;23.33;;;2.40;99.90;;;1.25;100.00;103102.00;4152824;28;20421;-74
2023/01/24 08:20:29;;;;;;;40.67;23.60;;;2.40;99.90;;;1.22;100.00;103099.47;4151537;28;20037;-74
2023/01/24 08:22:30;;;;;;;40.38;24.45;;;2.40;99.90;;;1.20;100.00;103107.31;4152460;28;20046;-74
2023/01/24 08:24:31;;;;;;;41.72;23.20;;;2.40;99.90;;;1.21;100.00;103114.22;4138226;28;20044;-74
2023/01/24 08:26:32;;;;;;;40.75;23.17;;;2.40;99.90;;;1.28;100.00;103115.78;4160736;28;20021;-75
2023/01/24 08:28:33;;;;;;;44.10;23.40;;;2.40;99.90;;;1.28;100.00;103122.72;4152336;28;20025;-74
2023/01/24 08:30:34;;;;;;;38.90;21.40;;;2.50;99.90;;;1.22;100.00;103108.13;4151373;28;20022;-75
2023/01/24 08:32:35;;;;;;;39.50;22.35;;;2.50;99.90;;;1.30;100.00;103123.53;4151527;28;20037;-75
2023/01/24 08:34:36;;;;;;;40.60;23.48;;;2.50;99.90;;;1.34;100.00;103119.97;4152616;28;20482;-75
2023/01/24 08:36:37;;;;;;;41.83;22.60;;;2.50;99.90;;;1.44;100.00;103119.69;4155924;28;20032;-75
2023/01/24 08:38:38;;;;;;;41.17;22.70;;;2.50;99.90;;;1.47;100.00;103116.13;4135213;28;20113;-75
2023/01/24 08:40:39;;;;;;;44.67;25.80;;;2.60;99.90;;;1.48;100.00;103126.53;4152674;28;20119;-75
2023/01/24 08:42:40;;;;;;;40.10;21.73;;;2.60;99.90;;;1.52;100.00;103125.53;4151174;28;20018;-75
2023/01/24 08:44:40;;;;;;;40.88;22.52;;;2.70;99.90;;;1.51;100.00;103128.19;4152434;28;20037;-75
2023/01/24 08:46:42;;;;;;;44.78;24.38;;;2.70;99.90;;;1.42;100.00;103123.22;4151164;28;20033;-75
2023/01/24 08:48:43;;;;;;;41.00;22.40;;;2.70;99.90;;;1.51;100.00;103136.00;4151366;28;20026;-75
2023/01/24 08:50:44;;;;;;;40.40;23.10;;;2.70;99.90;;;1.51;100.00;103122.97;4152446;28;20037;-75
2023/01/24 08:52:45;;;;;;;40.45;22.58;;;2.70;99.90;;;1.54;100.00;103128.97;4151140;28;20061;-75
2023/01/24 08:54:46;;;;;;;42.00;23.42;;;2.70;99.90;;;1.52;100.00;103135.94;4147056;28;20026;-75
2023/01/24 08:56:47;;;;;;;41.83;23.05;;;2.70;99.90;;;1.50;100.00;103131.66;4144385;28;20478;-75
2023/01/24 08:58:48;;;;;;;39.60;22.95;;;2.70;99.90;;;1.44;100.00;103139.63;4151162;28;20022;-75
2023/01/24 09:00:49;;;;;;;39.13;22.80;;;2.70;99.90;;;1.53;100.00;103142.84;4151186;28;20038;-75
2023/01/24 09:02:51;;;;;;;40.22;21.83;;;2.70;99.90;;;1.56;100.00;103147.13;4151932;28;20029;-75